createdAt,value
2018-06-12T00:01:38.816Z,4.97
2018-06-12T00:04:05.597Z,5.47
2018-06-12T00:06:32.056Z,3.15
2018-06-12T00:08:58.529Z,5.30
2018-06-12T00:11:25.088Z,6.03
2018-06-12T00:13:51.549Z,6.00
2018-06-12T00:16:18.005Z,6.63
2018-06-12T00:18:44.493Z,4.50
2018-06-12T00:21:10.973Z,5.03
2018-06-12T00:23:37.431Z,5.33
2018-06-12T00:26:03.915Z,7.20
2018-06-12T00:28:30.402Z,4.20
2018-06-12T00:30:57.537Z,4.23
2018-06-12T00:33:24.053Z,4.83
2018-06-12T00:35:50.515Z,5.75
2018-06-12T00:38:16.986Z,3.87
2018-06-12T00:40:43.461Z,6.37
2018-06-12T00:43:10.183Z,2.87
2018-06-12T00:45:36.676Z,4.30
2018-06-12T00:48:03.197Z,4.73
2018-06-12T00:50:29.680Z,5.53
2018-06-12T00:52:56.157Z,4.27
2018-06-12T00:55:22.643Z,4.40
2018-06-12T00:57:49.223Z,4.83
2018-06-12T01:00:15.733Z,3.10
2018-06-12T01:02:42.180Z,8.63
2018-06-12T01:05:08.633Z,4.17
2018-06-12T01:07:35.106Z,4.60
2018-06-12T01:10:01.579Z,3.30
2018-06-12T01:12:28.260Z,3.50
2018-06-12T01:14:55.338Z,5.93
2018-06-12T01:17:21.808Z,8.15
2018-06-12T01:19:48.276Z,3.83
2018-06-12T01:22:15.200Z,5.77
2018-06-12T01:24:41.661Z,4.33
2018-06-12T01:27:08.135Z,7.33
2018-06-12T01:29:34.606Z,3.53
2018-06-12T01:32:01.102Z,4.83
2018-06-12T01:34:27.562Z,5.20
2018-06-12T01:36:54.043Z,6.03
2018-06-12T01:39:20.528Z,8.20
2018-06-12T01:41:47.036Z,6.43
2018-06-12T01:44:13.500Z,3.67
2018-06-12T01:46:39.942Z,4.50
2018-06-12T01:49:06.417Z,4.47
2018-06-12T01:51:32.917Z,3.40
2018-06-12T01:53:59.397Z,5.17
2018-06-12T01:56:25.871Z,3.70
2018-06-12T01:58:52.359Z,4.40
2018-06-12T02:01:18.822Z,3.20
2018-06-12T02:03:45.304Z,3.83
2018-06-12T02:06:11.773Z,3.23
2018-06-12T02:08:38.229Z,5.00
2018-06-12T02:11:04.691Z,5.97
2018-06-12T02:13:31.159Z,9.83
2018-06-12T02:15:57.610Z,2.83
2018-06-12T02:18:24.065Z,4.00
2018-06-12T02:20:50.529Z,6.65
2018-06-12T02:23:16.988Z,6.50
2018-06-12T02:25:43.503Z,3.70
2018-06-12T02:28:09.979Z,4.30
2018-06-12T02:30:36.448Z,7.23
2018-06-12T02:33:03.058Z,5.37
2018-06-12T02:35:29.540Z,5.47
2018-06-12T02:37:56.046Z,3.43
2018-06-12T02:40:22.540Z,3.95
2018-06-12T02:42:49.103Z,2.87
2018-06-12T02:45:15.599Z,4.10
2018-06-12T02:47:42.050Z,2.23
2018-06-12T02:50:08.511Z,4.23
2018-06-12T02:52:35.002Z,4.33
2018-06-12T02:55:01.494Z,2.80
2018-06-12T02:57:27.988Z,3.37
2018-06-12T02:59:54.440Z,3.10
2018-06-12T03:02:20.862Z,5.75
2018-06-12T03:04:47.320Z,3.40
2018-06-12T03:07:13.800Z,3.30
2018-06-12T03:09:40.282Z,5.08
2018-06-12T03:12:06.756Z,2.50
2018-06-12T03:14:33.210Z,4.53
2018-06-12T03:16:59.670Z,4.50
2018-06-12T03:19:26.141Z,5.70
2018-06-12T03:21:53.122Z,3.50
2018-06-12T03:24:20.182Z,3.90
2018-06-12T03:26:46.683Z,4.10
2018-06-12T03:29:13.159Z,3.47
2018-06-12T03:31:39.631Z,3.35
2018-06-12T03:34:06.152Z,4.10
2018-06-12T03:36:32.652Z,3.27
2018-06-12T03:38:59.142Z,5.17
2018-06-12T03:41:25.644Z,2.70
2018-06-12T03:43:53.914Z,7.45
2018-06-12T03:46:20.404Z,3.30
2018-06-12T03:48:46.916Z,4.87
2018-06-12T03:51:13.368Z,3.55
2018-06-12T03:53:40.241Z,5.17
2018-06-12T03:56:06.709Z,4.95
2018-06-12T03:58:33.179Z,3.67
2018-06-12T04:00:59.684Z,5.67
2018-06-12T04:03:26.178Z,4.07
2018-06-12T04:05:52.673Z,3.25
2018-06-12T04:08:19.226Z,6.93
2018-06-12T04:10:45.739Z,3.40
2018-06-12T04:13:12.213Z,4.53
2018-06-12T04:15:38.687Z,5.10
2018-06-12T04:18:05.181Z,5.80
2018-06-12T04:20:31.667Z,4.43
2018-06-12T04:22:58.154Z,5.07
2018-06-12T04:25:24.649Z,6.33
2018-06-12T04:27:51.199Z,5.63
2018-06-12T04:30:17.691Z,5.83
2018-06-12T04:32:44.201Z,10.87
2018-06-12T04:35:10.697Z,5.03
2018-06-12T04:37:37.201Z,10.75
2018-06-12T04:40:03.728Z,7.17
2018-06-12T04:42:30.208Z,4.43
2018-06-12T04:44:56.709Z,4.27
2018-06-12T04:47:23.223Z,5.43
2018-06-12T04:49:49.679Z,4.67
2018-06-12T04:52:16.185Z,3.97
2018-06-12T04:54:42.726Z,5.63
2018-06-12T04:57:09.207Z,8.80
2018-06-12T04:59:35.695Z,5.33
2018-06-12T05:02:02.232Z,6.17
2018-06-12T05:04:28.741Z,5.10
2018-06-12T05:06:55.226Z,7.03
2018-06-12T05:09:21.904Z,6.90
2018-06-12T05:11:48.399Z,6.90
2018-06-12T05:14:14.879Z,5.70
2018-06-12T05:16:41.361Z,7.53
2018-06-12T05:19:07.849Z,6.50
2018-06-12T05:21:34.327Z,4.45
2018-06-12T05:24:01.031Z,6.17
2018-06-12T05:26:27.529Z,5.97
2018-06-12T05:28:54.035Z,6.73
2018-06-12T05:31:20.513Z,5.17
2018-06-12T05:33:47.033Z,5.67
2018-06-12T05:36:13.528Z,11.20
2018-06-12T05:38:40.028Z,14.40
2018-06-12T05:41:06.510Z,24.83
2018-06-12T05:43:33.053Z,7.27
2018-06-12T05:45:59.551Z,10.40
2018-06-12T05:48:26.109Z,13.40
2018-06-12T05:50:52.599Z,7.73
2018-06-12T05:53:19.111Z,6.45
2018-06-12T05:55:45.649Z,11.48
2018-06-12T05:58:12.152Z,4.37
2018-06-12T06:00:38.691Z,5.67
2018-06-12T06:03:05.161Z,5.97
2018-06-12T06:05:31.624Z,7.55
2018-06-12T06:07:58.357Z,11.03
2018-06-12T06:10:24.845Z,6.07
2018-06-12T06:12:51.341Z,9.17
2018-06-12T06:15:18.333Z,11.73
2018-06-12T06:17:44.828Z,25.83
2018-06-12T06:20:11.313Z,11.83
2018-06-12T06:22:38.302Z,11.20
2018-06-12T06:25:04.763Z,10.33
2018-06-12T06:27:31.240Z,9.17
2018-06-12T06:29:57.727Z,17.45
2018-06-12T06:32:24.185Z,13.57
2018-06-12T06:34:50.664Z,10.27
2018-06-12T06:37:17.122Z,11.67
2018-06-12T06:39:43.588Z,6.47
2018-06-12T06:42:10.864Z,11.17
2018-06-12T06:44:37.312Z,7.13
2018-06-12T06:47:03.761Z,10.47
2018-06-12T06:49:30.214Z,5.87
2018-06-12T06:51:56.694Z,7.07
2018-06-12T06:54:23.209Z,9.13
2018-06-12T06:56:49.652Z,8.67
2018-06-12T06:59:16.136Z,8.68
2018-06-12T07:01:42.613Z,5.37
2018-06-12T07:04:09.088Z,8.33
2018-06-12T07:06:35.564Z,8.00
2018-06-12T07:09:02.089Z,5.37
2018-06-12T07:11:28.558Z,6.03
2018-06-12T07:13:55.030Z,6.50
2018-06-12T07:16:21.498Z,8.17
2018-06-12T07:18:48.007Z,7.30
2018-06-12T07:21:14.485Z,9.88
2018-06-12T07:23:40.943Z,8.40
2018-06-12T07:26:07.471Z,5.87
2018-06-12T07:28:33.905Z,7.25
2018-06-12T07:31:00.387Z,4.87
2018-06-12T07:33:26.837Z,9.43
2018-06-12T07:35:53.309Z,3.40
2018-06-12T07:38:19.738Z,5.00
2018-06-12T07:40:46.161Z,5.63
2018-06-12T07:43:12.638Z,6.53
2018-06-12T07:45:39.120Z,4.93
2018-06-12T07:48:05.604Z,8.55
2018-06-12T07:50:32.336Z,3.90
2018-06-12T07:52:58.948Z,4.40
2018-06-12T07:55:25.484Z,5.73
2018-06-12T07:57:51.994Z,4.27
2018-06-12T08:00:18.520Z,8.23
2018-06-12T08:02:45.082Z,6.07
2018-06-12T08:05:11.560Z,6.90
2018-06-12T08:07:38.032Z,8.57
2018-06-12T08:10:04.493Z,5.40
2018-06-12T08:12:31.310Z,4.40
2018-06-12T08:14:57.810Z,7.60
2018-06-12T08:17:24.327Z,7.27
2018-06-12T08:19:50.839Z,5.00
2018-06-12T08:22:17.317Z,6.63
2018-06-12T08:24:43.786Z,5.60
2018-06-12T08:27:10.264Z,13.88
2018-06-12T08:29:36.812Z,6.53
2018-06-12T08:32:03.225Z,7.30
2018-06-12T08:34:29.689Z,8.07
2018-06-12T08:36:56.242Z,5.25
2018-06-12T08:39:22.720Z,5.50
2018-06-12T08:41:49.170Z,7.97
2018-06-12T08:44:15.644Z,12.57
2018-06-12T08:46:42.181Z,6.33
2018-06-12T08:49:08.618Z,11.95
2018-06-12T08:51:35.045Z,11.63
2018-06-12T08:54:01.482Z,7.30
2018-06-12T08:56:27.954Z,5.53
2018-06-12T08:58:54.468Z,5.23
2018-06-12T09:01:21.870Z,8.70
2018-06-12T09:03:48.354Z,4.20
2018-06-12T09:06:14.786Z,4.25
2018-06-12T09:08:41.236Z,4.30
2018-06-12T09:11:07.705Z,6.70
2018-06-12T09:13:34.178Z,4.97
2018-06-12T09:16:00.617Z,5.25
2018-06-12T09:18:27.068Z,5.70
2018-06-12T09:20:53.500Z,5.33
2018-06-12T09:23:19.970Z,5.05
2018-06-12T09:25:46.466Z,5.43
2018-06-12T09:28:12.925Z,5.30
2018-06-12T09:30:39.409Z,6.23
2018-06-12T09:33:05.943Z,5.57
2018-06-12T09:35:32.395Z,4.90
2018-06-12T09:37:59.378Z,10.50
2018-06-12T09:40:25.873Z,6.23
2018-06-12T09:42:52.413Z,4.97
2018-06-12T09:45:18.863Z,4.78
2018-06-12T09:47:45.369Z,7.73
2018-06-12T09:50:11.919Z,5.17
2018-06-12T09:52:38.407Z,5.47
2018-06-12T09:55:05.467Z,4.77
2018-06-12T09:57:31.977Z,5.20
2018-06-12T09:59:59.105Z,5.60
2018-06-12T10:02:25.566Z,5.13
2018-06-12T10:04:52.097Z,9.03
2018-06-12T10:07:18.587Z,5.10
2018-06-12T10:09:45.072Z,11.48
2018-06-12T10:12:12.217Z,6.00
2018-06-12T10:14:38.788Z,4.50
2018-06-12T10:17:05.291Z,6.27
2018-06-12T10:19:31.792Z,6.62
2018-06-12T10:21:58.273Z,6.33
2018-06-12T10:24:24.872Z,6.67
2018-06-12T10:26:51.349Z,5.83
2018-06-12T10:29:17.864Z,5.23
2018-06-12T10:31:44.459Z,7.25
2018-06-12T10:34:11.039Z,5.90
2018-06-12T10:36:37.544Z,6.37
2018-06-12T10:39:04.447Z,6.37
2018-06-12T10:41:30.942Z,4.93
2018-06-12T10:43:57.454Z,5.10
2018-06-12T10:46:23.952Z,5.63
2018-06-12T10:48:50.493Z,5.47
2018-06-12T10:51:17.031Z,5.97
2018-06-12T10:53:43.569Z,7.33
2018-06-12T10:56:10.129Z,6.00
2018-06-12T10:58:36.655Z,11.73
2018-06-12T11:01:03.143Z,7.55
2018-06-12T11:03:29.654Z,6.47
2018-06-12T11:05:56.119Z,11.83
2018-06-12T11:08:23.096Z,6.87
2018-06-12T11:10:49.612Z,5.60
2018-06-12T11:13:16.119Z,7.83
2018-06-12T11:15:42.607Z,6.00
2018-06-12T11:18:09.261Z,6.03
2018-06-12T11:20:36.317Z,6.27
2018-06-12T11:23:02.803Z,5.93
2018-06-12T11:25:29.290Z,8.43
2018-06-12T11:27:56.880Z,5.87
2018-06-12T11:30:23.374Z,7.10
2018-06-12T11:32:49.856Z,6.00
2018-06-12T11:35:16.310Z,5.27
2018-06-12T11:37:42.850Z,5.67
2018-06-12T11:40:09.316Z,5.10
2018-06-12T11:42:35.816Z,6.57
2018-06-12T11:45:02.311Z,5.60
2018-06-12T11:47:28.856Z,8.70
2018-06-12T11:50:05.136Z,6.53
2018-06-12T11:52:32.083Z,6.17
2018-06-12T11:54:59.336Z,5.37
2018-06-12T11:57:36.097Z,4.67
2018-06-12T12:00:02.570Z,7.40
2018-06-12T12:02:29.132Z,6.40
2018-06-12T12:04:55.704Z,5.62
2018-06-12T12:07:22.175Z,7.55
2018-06-12T12:09:48.780Z,7.17
2018-06-12T12:12:15.889Z,7.97
2018-06-12T12:14:42.387Z,8.45
2018-06-12T12:17:08.855Z,10.77
2018-06-12T12:19:35.345Z,5.53
2018-06-12T12:22:01.819Z,9.27
2018-06-12T12:24:28.421Z,5.45
2018-06-12T12:26:54.882Z,7.22
2018-06-12T12:29:21.377Z,5.57
2018-06-12T12:31:47.861Z,6.57
2018-06-12T12:34:14.317Z,6.43
2018-06-12T12:36:40.773Z,4.50
2018-06-12T12:39:07.279Z,6.17
2018-06-12T12:41:33.753Z,8.00
2018-06-12T12:44:00.238Z,6.13
2018-06-12T12:46:26.718Z,5.97
2018-06-12T12:48:53.159Z,5.07
2018-06-12T12:51:19.631Z,5.40
2018-06-12T12:53:46.105Z,5.60
2018-06-12T12:56:12.593Z,5.17
2018-06-12T12:58:39.094Z,7.03
2018-06-12T13:01:05.561Z,7.70
2018-06-12T13:03:32.033Z,6.10
2018-06-12T13:05:58.492Z,6.60
2018-06-12T13:08:24.975Z,5.33
2018-06-12T13:10:51.485Z,10.07
2018-06-12T13:13:17.943Z,4.87
2018-06-12T13:15:44.423Z,5.27
2018-06-12T13:18:11.004Z,6.27
2018-06-12T13:20:37.489Z,6.90
2018-06-12T13:23:03.969Z,5.77
2018-06-12T13:25:30.428Z,5.37
2018-06-12T13:27:56.894Z,5.77
2018-06-12T13:30:23.397Z,5.57
2018-06-12T13:32:50.036Z,6.70
2018-06-12T13:35:16.521Z,5.70
2018-06-12T13:37:43.020Z,6.70
2018-06-12T13:40:09.542Z,5.13
2018-06-12T13:42:35.980Z,5.30
2018-06-12T13:45:02.478Z,5.85
2018-06-12T13:47:28.970Z,4.97
2018-06-12T13:49:55.469Z,6.23
2018-06-12T13:52:22.446Z,5.47
2018-06-12T13:54:49.501Z,4.83
2018-06-12T13:57:15.979Z,8.43
2018-06-12T13:59:42.495Z,5.67
2018-06-12T14:02:08.998Z,6.30
2018-06-12T14:04:35.509Z,4.87
2018-06-12T14:07:02.101Z,5.30
2018-06-12T14:09:29.237Z,6.12
2018-06-12T14:11:55.816Z,7.60
2018-06-12T14:14:22.335Z,20.17
2018-06-12T14:16:48.803Z,7.27
2018-06-12T14:19:15.425Z,8.73
2018-06-12T14:21:41.891Z,9.40
2018-06-12T14:24:08.391Z,10.23
2018-06-12T14:26:34.867Z,7.10
2018-06-12T14:29:01.392Z,9.20
2018-06-12T14:31:27.899Z,11.38
2018-06-12T14:33:54.453Z,5.43
2018-06-12T14:36:20.948Z,7.80
2018-06-12T14:38:47.431Z,5.65
2018-06-12T14:41:13.953Z,5.80
2018-06-12T14:43:40.422Z,9.13
2018-06-12T14:46:06.993Z,9.87
2018-06-12T14:48:33.578Z,7.43
2018-06-12T14:51:00.037Z,6.87
2018-06-12T14:53:26.490Z,5.08
2018-06-12T14:55:52.970Z,16.37
2018-06-12T14:58:19.468Z,5.73
2018-06-12T15:00:45.920Z,5.57
2018-06-12T15:03:12.373Z,7.95
2018-06-12T15:05:38.809Z,5.23
2018-06-12T15:08:05.267Z,5.27
2018-06-12T15:10:31.748Z,4.50
2018-06-12T15:12:58.390Z,5.37
2018-06-12T15:15:24.894Z,5.97
2018-06-12T15:17:51.469Z,6.53
2018-06-12T15:20:17.948Z,6.97
2018-06-12T15:22:44.405Z,7.40
2018-06-12T15:25:10.972Z,5.30
2018-06-12T15:27:37.401Z,6.53
2018-06-12T15:30:03.864Z,5.30
2018-06-12T15:32:30.314Z,5.85
2018-06-12T15:34:56.805Z,6.70
2018-06-12T15:37:23.260Z,5.23
2018-06-12T15:39:49.744Z,6.63
2018-06-12T15:42:17.044Z,4.78
2018-06-12T15:44:43.557Z,5.37
2018-06-12T15:47:09.981Z,8.50
2018-06-12T15:49:36.437Z,4.42
2018-06-12T15:52:02.943Z,6.83
2018-06-12T15:54:29.426Z,5.57
2018-06-12T15:56:55.942Z,5.90
2018-06-12T15:59:22.425Z,5.23
2018-06-12T16:01:48.893Z,4.95
2018-06-12T16:04:15.360Z,7.93
2018-06-12T16:06:41.832Z,4.33
2018-06-12T16:09:08.468Z,5.05
2018-06-12T16:11:34.925Z,8.05
2018-06-12T16:14:01.400Z,4.40
2018-06-12T16:16:27.895Z,4.37
2018-06-12T16:18:54.386Z,4.87
2018-06-12T16:21:20.868Z,4.53
2018-06-12T16:23:47.360Z,6.07
2018-06-12T16:26:13.831Z,7.27
2018-06-12T16:28:40.322Z,4.77
2018-06-12T16:31:06.772Z,4.85
2018-06-12T16:33:33.221Z,7.83
2018-06-12T16:35:59.696Z,5.40
2018-06-12T16:38:26.152Z,5.20
2018-06-12T16:40:52.636Z,4.90
2018-06-12T16:43:19.064Z,5.17
2018-06-12T16:45:45.545Z,4.50
2018-06-12T16:48:12.032Z,6.03
2018-06-12T16:50:38.531Z,5.73
2018-06-12T16:53:04.966Z,4.47
2018-06-12T16:55:31.440Z,5.03
2018-06-12T16:57:57.924Z,5.15
2018-06-12T17:00:24.882Z,4.73
2018-06-12T17:02:51.373Z,5.25
2018-06-12T17:05:17.859Z,17.73
2018-06-12T17:07:44.342Z,9.70
2018-06-12T17:10:10.821Z,10.13
2018-06-12T17:12:37.334Z,15.08
2018-06-12T17:15:03.832Z,12.93
2018-06-12T17:17:30.323Z,8.17
2018-06-12T17:19:56.811Z,13.57
2018-06-12T17:22:23.300Z,7.30
2018-06-12T17:24:49.773Z,11.68
2018-06-12T17:27:16.273Z,23.83
2018-06-12T17:29:42.757Z,8.80
2018-06-12T17:32:09.752Z,9.65
2018-06-12T17:34:36.236Z,11.83
2018-06-12T17:37:02.742Z,24.37
2018-06-12T17:39:29.245Z,12.40
2018-06-12T17:41:55.727Z,12.80
2018-06-12T17:44:22.246Z,18.40
2018-06-12T17:46:48.729Z,9.90
2018-06-12T17:49:15.218Z,25.55
2018-06-12T17:51:41.667Z,12.57
2018-06-12T17:54:08.182Z,11.90
2018-06-12T17:56:35.229Z,13.73
2018-06-12T17:59:01.695Z,7.07
2018-06-12T18:01:28.173Z,9.40
2018-06-12T18:03:54.770Z,10.00
2018-06-12T18:06:21.233Z,10.08
2018-06-12T18:08:47.757Z,10.10
2018-06-12T18:11:14.249Z,10.50
2018-06-12T18:13:41.480Z,8.97
2018-06-12T18:16:08.702Z,16.45
2018-06-12T18:18:35.269Z,10.00
2018-06-12T18:21:01.781Z,11.80
2018-06-12T18:23:28.274Z,19.02
2018-06-12T18:25:54.813Z,20.33
2018-06-12T18:28:21.319Z,21.30
2018-06-12T18:30:47.863Z,11.97
2018-06-12T18:33:14.452Z,15.03
2018-06-12T18:35:40.969Z,12.73
2018-06-12T18:38:07.473Z,20.35
2018-06-12T18:40:34.051Z,15.10
2018-06-12T18:43:00.698Z,20.53
2018-06-12T18:45:27.177Z,12.10
2018-06-12T18:47:53.699Z,11.80
2018-06-12T18:50:20.167Z,17.43
2018-06-12T18:52:46.662Z,15.20
2018-06-12T18:55:13.175Z,19.90
2018-06-12T18:57:39.697Z,17.83
2018-06-12T19:00:06.224Z,13.88
2018-06-12T19:02:32.785Z,9.57
2018-06-12T19:04:59.293Z,20.00
2018-06-12T19:07:25.836Z,24.40
2018-06-12T19:09:52.389Z,13.37
2018-06-12T19:12:18.971Z,15.08
2018-06-12T19:14:45.467Z,22.58
2018-06-12T19:17:11.967Z,16.07
2018-06-12T19:19:38.561Z,22.03
2018-06-12T19:22:05.071Z,12.53
2018-06-12T19:24:31.565Z,15.90
2018-06-12T19:26:58.586Z,12.58
2018-06-12T19:29:25.087Z,22.43
2018-06-12T19:31:51.631Z,17.87
2018-06-12T19:34:18.696Z,12.65
2018-06-12T19:36:45.256Z,11.10
2018-06-12T19:39:11.882Z,14.07
2018-06-12T19:41:38.393Z,14.17
2018-06-12T19:44:04.921Z,13.03
2018-06-12T19:46:31.473Z,13.97
2018-06-12T19:48:58.048Z,17.37
2018-06-12T19:51:24.493Z,12.20
2018-06-12T19:53:51.061Z,23.43
2018-06-12T19:56:17.538Z,20.88
2018-06-12T19:58:44.057Z,12.07
2018-06-12T20:01:10.598Z,13.93
2018-06-12T20:03:37.081Z,14.23
2018-06-12T20:06:03.570Z,9.10
2018-06-12T20:08:30.041Z,8.33
2018-06-12T20:10:56.540Z,10.07
2018-06-12T20:13:23.590Z,11.27
2018-06-12T20:15:50.072Z,13.18
2018-06-12T20:18:16.566Z,14.90
2018-06-12T20:20:43.058Z,11.20
2018-06-12T20:23:09.524Z,9.53
2018-06-12T20:25:35.926Z,9.05
2018-06-12T20:28:02.321Z,11.57
2018-06-12T20:30:28.736Z,19.30
2018-06-12T20:32:55.149Z,11.50
2018-06-12T20:35:21.619Z,10.77
2018-06-12T20:37:48.133Z,10.13
2018-06-12T20:40:14.661Z,11.22
2018-06-12T20:42:41.167Z,9.95
2018-06-12T20:45:07.714Z,14.43
2018-06-12T20:47:34.241Z,12.10
2018-06-12T20:50:04.332Z,10.60
2018-06-12T20:52:33.121Z,11.10
2018-06-12T20:54:59.590Z,13.70
2018-06-12T20:57:26.045Z,10.30
2018-06-12T20:59:52.528Z,8.15
2018-06-12T21:02:19.020Z,10.47
2018-06-12T21:04:45.515Z,8.07
2018-06-12T21:07:12.106Z,9.87
2018-06-12T21:09:38.558Z,9.33
2018-06-12T21:12:05.064Z,8.85
2018-06-12T21:14:31.563Z,10.63
2018-06-12T21:16:58.036Z,9.67
2018-06-12T21:19:24.534Z,10.23
2018-06-12T21:21:51.023Z,10.03
2018-06-12T21:24:17.533Z,8.43
2018-06-12T21:26:44.062Z,7.77
2018-06-12T21:29:10.537Z,8.87
2018-06-12T21:31:37.031Z,9.83
2018-06-12T21:34:03.538Z,9.68
2018-06-12T21:36:30.036Z,8.73
2018-06-12T21:38:56.498Z,9.80
2018-06-12T21:41:22.987Z,10.08
2018-06-12T21:43:49.511Z,8.00
2018-06-12T21:46:16.639Z,8.27
2018-06-12T21:48:43.092Z,7.97
2018-06-12T21:51:09.629Z,13.20
2018-06-12T21:53:36.131Z,7.90
2018-06-12T21:56:02.639Z,8.63
2018-06-12T21:58:29.159Z,9.07
2018-06-12T22:00:55.665Z,8.55
2018-06-12T22:03:22.212Z,8.47
2018-06-12T22:05:48.713Z,8.47
2018-06-12T22:08:15.212Z,11.00
2018-06-12T22:10:41.731Z,8.13
2018-06-12T22:13:08.263Z,8.78
2018-06-12T22:15:34.741Z,9.30
2018-06-12T22:18:01.230Z,11.00
2018-06-12T22:20:27.737Z,9.60
2018-06-12T22:22:54.505Z,7.97
2018-06-12T22:25:20.980Z,9.77
2018-06-12T22:27:47.475Z,7.92
2018-06-12T22:30:13.963Z,7.43
2018-06-12T22:32:40.459Z,7.40
2018-06-12T22:35:06.953Z,9.88
2018-06-12T22:37:33.417Z,11.57
2018-06-12T22:39:59.899Z,7.53
2018-06-12T22:42:26.357Z,7.17
2018-06-12T22:44:52.925Z,7.00
2018-06-12T22:47:19.405Z,6.97
2018-06-12T22:49:45.885Z,10.63
2018-06-12T22:52:13.224Z,6.73
2018-06-12T22:54:39.702Z,7.47
2018-06-12T22:57:06.182Z,7.87
2018-06-12T22:59:32.652Z,5.90
2018-06-12T23:01:59.089Z,7.03
2018-06-12T23:04:25.569Z,7.37
2018-06-12T23:06:52.025Z,6.95
2018-06-12T23:09:18.526Z,6.07
2018-06-12T23:11:45.194Z,6.07
2018-06-12T23:14:11.863Z,6.17
2018-06-12T23:16:38.346Z,5.67
2018-06-12T23:19:04.818Z,5.72
2018-06-12T23:21:31.316Z,5.93
2018-06-12T23:23:58.196Z,4.77
2018-06-12T23:26:24.657Z,5.27
2018-06-12T23:28:51.130Z,6.63
2018-06-12T23:31:17.634Z,5.20
2018-06-12T23:33:44.094Z,6.50
2018-06-12T23:36:10.572Z,5.30
2018-06-12T23:38:37.074Z,4.70
2018-06-12T23:41:03.586Z,4.35
2018-06-12T23:43:30.098Z,5.07
2018-06-12T23:45:56.607Z,4.20
2018-06-12T23:48:23.134Z,5.87
2018-06-12T23:50:49.572Z,4.83
2018-06-12T23:53:16.060Z,4.65
2018-06-12T23:55:43.070Z,5.00
2018-06-12T23:58:09.568Z,5.60
